Time;durP1;ratioP1;P1;durP2;ratioP2;P2;SDS_P1;SDS_P2;PMS_P1;PMS_P2;Temp;Humidity;BMP_temperature;BMP_pressure;BME280_temperature;BME280_humidity;BME280_pressure;Samples;Min_cycle;Max_cycle;Signal;HPM_P1;HPM_P2
2022/03/08 00:00:31;;;;;;;17.25;12.80;;;;;;;0.68;43.99;99508.28;2622367;54;20038;-66
2022/03/08 00:03:04;;;;;;;16.08;11.75;;;;;;;0.69;43.77;99503.00;2621950;54;20045;-66
2022/03/08 00:05:34;;;;;;;18.48;12.73;;;;;;;0.69;43.68;99507.34;2621382;54;20030;-67
2022/03/08 00:08:05;;;;;;;16.33;13.38;;;;;;;0.69;43.83;99509.94;2620672;54;20122;-68
2022/03/08 00:10:35;;;;;;;14.93;12.18;;;;;;;0.69;43.58;99510.81;2620691;54;20031;-66
2022/03/08 00:13:05;;;;;;;17.15;12.57;;;;;;;0.70;43.50;99504.66;2622469;39;20420;-66
2022/03/08 00:15:35;;;;;;;16.65;13.07;;;;;;;0.70;43.24;99501.22;2624414;54;20034;-66
2022/03/08 00:18:07;;;;;;;16.67;12.15;;;;;;;0.70;43.28;99506.44;2625395;39;20448;-66
2022/03/08 00:20:38;;;;;;;18.08;13.02;;;;;;;0.68;43.19;99508.28;2624451;54;20057;-65
2022/03/08 00:23:07;;;;;;;16.52;12.50;;;;;;;0.66;43.44;99503.22;2624339;54;20038;-65
2022/03/08 00:25:37;;;;;;;17.65;12.88;;;;;;;0.69;43.22;99504.75;2623505;54;20146;-64
2022/03/08 00:28:07;;;;;;;17.48;11.90;;;;;;;0.71;43.22;99505.47;2623826;47;20037;-65
2022/03/08 00:30:38;;;;;;;16.33;12.38;;;;;;;0.70;43.13;99514.25;2623787;47;20037;-66
2022/03/08 00:33:12;;;;;;;17.08;12.70;;;;;;;0.68;42.95;99509.13;2623906;54;20063;-66
2022/03/08 00:35:41;;;;;;;16.23;12.70;;;;;;;0.65;43.37;99509.38;2623762;39;20416;-66
2022/03/08 00:38:11;;;;;;;20.25;12.23;;;;;;;0.63;43.38;99516.44;2624009;54;20134;-66
2022/03/08 00:40:41;;;;;;;17.08;12.07;;;;;;;0.64;43.64;99518.09;2623360;47;20070;-64
2022/03/08 00:43:11;;;;;;;16.48;12.93;;;;;;;0.62;43.46;99508.75;2625169;54;20038;-65
2022/03/08 00:45:41;;;;;;;15.38;12.13;;;;;;;0.57;43.74;99509.09;2624865;47;20034;-64
2022/03/08 00:48:14;;;;;;;16.60;12.02;;;;;;;0.55;43.49;99504.94;2625237;47;20034;-64
2022/03/08 00:50:44;;;;;;;15.82;11.75;;;;;;;0.52;43.46;99497.34;2624581;54;20033;-65
2022/03/08 00:53:15;;;;;;;15.30;12.18;;;;;;;0.47;43.97;99497.69;2624824;54;20033;-65
2022/03/08 00:55:45;;;;;;;16.40;12.82;;;;;;;0.47;44.05;99508.09;2623946;54;20037;-65
2022/03/08 00:58:15;;;;;;;16.08;11.45;;;;;;;0.39;43.86;99500.00;2624485;54;20026;-65
2022/03/08 01:00:44;;;;;;;17.92;12.50;;;;;;;0.34;43.91;99507.31;2624314;54;20043;-66
2022/03/08 01:03:17;;;;;;;15.00;12.10;;;;;;;0.30;44.29;99505.88;2624344;54;20030;-66
2022/03/08 01:05:47;;;;;;;16.80;12.40;;;;;;;0.25;44.45;99503.63;2624890;39;20422;-65
2022/03/08 01:08:17;;;;;;;15.38;12.07;;;;;;;0.21;44.50;99496.97;2624314;47;20552;-66
2022/03/08 01:10:46;;;;;;;19.10;12.98;;;;;;;0.18;44.54;99495.41;2625291;47;20034;-65
2022/03/08 01:13:16;;;;;;;17.73;12.32;;;;;;;0.14;44.50;99496.56;2625619;54;20106;-64
2022/03/08 01:15:46;;;;;;;19.83;13.63;;;;;;;0.14;44.74;99498.34;2624846;47;20038;-66
2022/03/08 01:18:18;;;;;;;23.17;14.90;;;;;;;0.13;45.11;99496.69;2624887;54;20027;-66
2022/03/08 01:20:47;;;;;;;18.02;13.07;;;;;;;0.08;44.88;99494.44;2624715;47;20029;-65
2022/03/08 01:23:17;;;;;;;16.42;12.23;;;;;;;0.04;45.17;99495.59;2624973;54;20030;-66
2022/03/08 01:25:47;;;;;;;17.05;12.35;;;;;;;0.00;45.35;99488.94;2625056;47;20031;-66
2022/03/08 01:28:18;;;;;;;16.98;12.35;;;;;;;-0.01;45.36;99489.84;2625431;54;20034;-65
2022/03/08 01:30:48;;;;;;;16.33;12.23;;;;;;;-0.04;45.11;99483.13;2626402;31;20544;-65
2022/03/08 01:33:22;;;;;;;16.92;12.75;;;;;;;-0.08;44.99;99481.69;2625239;54;20532;-66
2022/03/08 01:35:51;;;;;;;20.55;12.55;;;;;;;-0.09;45.62;99484.38;2625022;54;20023;-66
2022/03/08 01:38:22;;;;;;;18.00;12.75;;;;;;;-0.11;45.74;99486.25;2625038;39;20459;-65
2022/03/08 01:40:52;;;;;;;16.75;12.50;;;;;;;-0.13;45.68;99478.56;2625151;54;20026;-66
2022/03/08 01:43:21;;;;;;;15.80;11.95;;;;;;;-0.15;45.90;99475.25;2624723;54;20035;-66
2022/03/08 01:45:51;;;;;;;15.10;11.93;;;;;;;-0.17;45.71;99478.88;2625126;54;20045;-65
2022/03/08 01:48:23;;;;;;;17.27;12.10;;;;;;;-0.18;46.17;99475.47;2625667;54;20035;-67
2022/03/08 01:50:53;;;;;;;15.75;11.75;;;;;;;-0.22;45.79;99475.78;2624877;54;20037;-65
2022/03/08 01:53:23;;;;;;;13.63;10.98;;;;;;;-0.27;46.16;99469.16;2625676;39;20468;-64
2022/03/08 01:55:53;;;;;;;15.85;11.07;;;;;;;-0.25;46.06;99469.03;2625384;54;20541;-66
2022/03/08 01:58:26;;;;;;;16.03;11.67;;;;;;;-0.30;46.37;99474.53;2625284;54;20045;-66
2022/03/08 02:00:56;;;;;;;17.60;11.68;;;;;;;-0.40;46.76;99464.91;2625551;54;20334;-65
2022/03/08 02:03:29;;;;;;;14.10;11.07;;;;;;;-0.47;46.91;99458.47;2625421;54;20138;-66
2022/03/08 02:05:58;;;;;;;16.02;11.80;;;;;;;-0.50;46.94;99454.31;2624947;54;20026;-65
2022/03/08 02:08:29;;;;;;;15.77;11.98;;;;;;;-0.50;46.91;99449.13;2625230;54;20033;-66
2022/03/08 02:10:58;;;;;;;16.13;10.95;;;;;;;-0.50;46.91;99451.72;2623649;54;20038;-66
2022/03/08 02:13:29;;;;;;;16.63;11.75;;;;;;;-0.52;47.10;99440.63;2624284;54;20034;-65
2022/03/08 02:15:59;;;;;;;16.30;12.45;;;;;;;-0.55;47.45;99435.63;2624435;54;20030;-65
2022/03/08 02:18:31;;;;;;;16.40;11.63;;;;;;;-0.58;47.45;99438.44;2624641;54;20026;-66
2022/03/08 02:21:08;;;;;;;17.08;11.75;;;;;;;-0.60;47.45;99428.16;2624307;54;20049;-66
2022/03/08 02:23:38;;;;;;;16.00;11.80;;;;;;;-0.62;47.52;99424.84;2624402;54;20030;-66
2022/03/08 02:26:07;;;;;;;16.85;11.20;;;;;;;-0.65;47.59;99427.66;2624101;54;20030;-66
2022/03/08 02:28:37;;;;;;;14.32;11.40;;;;;;;-0.66;47.87;99418.19;2623187;54;20027;-66
2022/03/08 02:31:06;;;;;;;17.17;11.85;;;;;;;-0.67;47.69;99421.72;2623527;54;20587;-65
2022/03/08 02:33:36;;;;;;;17.08;11.90;;;;;;;-0.67;47.83;99424.31;2624753;54;20030;-65
2022/03/08 02:36:09;;;;;;;17.30;11.15;;;;;;;-0.65;47.94;99413.84;2624581;54;20529;-66
2022/03/08 02:38:39;;;;;;;16.38;11.18;;;;;;;-0.64;48.00;99420.69;2625056;54;20035;-65
2022/03/08 02:41:09;;;;;;;17.80;11.50;;;;;;;-0.61;48.25;99410.09;2625093;54;20129;-65
2022/03/08 02:43:38;;;;;;;14.43;11.35;;;;;;;-0.62;47.92;99408.44;2624196;54;20037;-66
2022/03/08 02:46:08;;;;;;;15.73;11.10;;;;;;;-0.63;48.24;99402.41;2625098;54;20035;-65
2022/03/08 02:48:37;;;;;;;15.48;11.40;;;;;;;-0.66;48.16;99405.22;2624902;54;20049;-66
2022/03/08 02:51:10;;;;;;;16.13;11.15;;;;;;;-0.73;48.49;99409.19;2625185;54;20062;-66
2022/03/08 02:53:41;;;;;;;18.52;11.30;;;;;;;-0.81;48.28;99399.34;2624274;47;20034;-66
2022/03/08 02:56:11;;;;;;;15.57;11.30;;;;;;;-0.81;48.80;99401.94;2624987;54;20038;-65
2022/03/08 02:58:40;;;;;;;17.60;11.93;;;;;;;-0.85;48.72;99402.25;2625003;54;20038;-66
2022/03/08 03:01:10;;;;;;;16.92;11.50;;;;;;;-0.89;48.63;99395.59;2624948;54;20030;-66
2022/03/08 03:03:40;;;;;;;16.42;11.32;;;;;;;-0.86;48.80;99400.56;2624782;54;20027;-65
2022/03/08 03:06:12;;;;;;;15.95;11.57;;;;;;;-0.87;48.98;99399.72;2625354;54;20034;-65
2022/03/08 03:08:42;;;;;;;15.60;11.10;;;;;;;-0.84;49.03;99386.56;2625372;54;20035;-65
2022/03/08 03:11:11;;;;;;;15.55;11.20;;;;;;;-0.84;49.10;99389.16;2625062;54;20065;-65
2022/03/08 03:13:41;;;;;;;19.23;12.02;;;;;;;-0.89;49.15;99385.22;2624820;54;20027;-66
2022/03/08 03:16:11;;;;;;;13.73;10.38;;;;;;;-0.88;48.80;99386.88;2622409;54;20030;-65
2022/03/08 03:18:40;;;;;;;15.60;11.35;;;;;;;-0.87;49.17;99378.97;2622436;54;20093;-65
2022/03/08 03:21:13;;;;;;;15.45;10.57;;;;;;;-0.83;49.22;99377.00;2622792;54;20045;-65
2022/03/08 03:23:42;;;;;;;17.33;11.25;;;;;;;-0.83;48.84;99385.59;2622503;54;20038;-65
2022/03/08 03:26:12;;;;;;;13.95;10.32;;;;;;;-0.79;48.85;99386.22;2622269;54;20034;-66
2022/03/08 03:28:45;;;;;;;13.95;10.20;;;;;;;-0.78;48.76;99375.75;2621737;54;20033;-65
2022/03/08 03:31:15;;;;;;;14.70;10.70;;;;;;;-0.76;48.56;99381.66;2621625;47;20035;-66
2022/03/08 03:33:45;;;;;;;16.55;10.85;;;;;;;-0.76;48.64;99379.06;2621958;54;20039;-65
2022/03/08 03:36:17;;;;;;;16.50;11.38;;;;;;;-0.78;48.77;99380.09;2622911;54;20035;-64
2022/03/08 03:38:46;;;;;;;14.52;10.60;;;;;;;-0.76;48.74;99375.66;2624954;54;20045;-65
2022/03/08 03:41:16;;;;;;;14.05;10.85;;;;;;;-0.77;48.91;99372.22;2625033;54;20038;-65
2022/03/08 03:43:46;;;;;;;15.93;10.70;;;;;;;-0.76;48.58;99376.47;2625195;54;20053;-66
2022/03/08 03:46:16;;;;;;;15.15;10.45;;;;;;;-0.79;48.85;99371.47;2624855;54;20030;-66
2022/03/08 03:48:47;;;;;;;12.93;9.80;;;;;;;-0.79;48.75;99378.44;2625013;54;20030;-66
2022/03/08 03:51:20;;;;;;;15.95;10.50;;;;;;;-0.78;49.00;99380.09;2624845;54;20035;-65
2022/03/08 03:53:49;;;;;;;12.82;10.15;;;;;;;-0.77;49.00;99380.00;2624278;47;20054;-65
2022/03/08 03:56:19;;;;;;;16.65;10.35;;;;;;;-0.77;48.78;99379.19;2623910;54;20034;-65
2022/03/08 03:58:49;;;;;;;20.80;14.90;;;;;;;-0.73;48.92;99377.22;2624627;54;20045;-65
2022/03/08 04:01:19;;;;;;;25.98;16.00;;;;;;;-0.66;49.03;99374.03;2624667;54;20033;-65
2022/03/08 04:03:49;;;;;;;15.18;10.65;;;;;;;-0.64;48.97;99374.78;2625028;39;21308;-66
2022/03/08 04:06:21;;;;;;;15.57;10.10;;;;;;;-0.68;48.74;99375.94;2624633;54;20037;-66
2022/03/08 04:08:51;;;;;;;14.70;10.82;;;;;;;-0.69;48.76;99368.28;2624735;54;20069;-66
2022/03/08 04:11:20;;;;;;;14.18;10.70;;;;;;;-0.69;49.06;99373.47;2624414;54;20045;-66
2022/03/08 04:13:50;;;;;;;14.48;10.38;;;;;;;-0.67;48.98;99371.56;2624474;54;20042;-66
2022/03/08 04:16:20;;;;;;;15.30;10.27;;;;;;;-0.64;48.88;99379.16;2624584;54;20058;-66
2022/03/08 04:18:49;;;;;;;14.93;10.43;;;;;;;-0.64;48.64;99374.78;2624483;54;20038;-66
2022/03/08 04:21:22;;;;;;;16.70;10.70;;;;;;;-0.61;48.72;99374.56;2624516;54;20030;-65
2022/03/08 04:23:51;;;;;;;14.40;10.98;;;;;;;-0.60;48.69;99373.63;2624912;54;20053;-66
2022/03/08 04:26:21;;;;;;;17.55;10.13;;;;;;;-0.59;48.59;99372.69;2624154;54;20143;-65
2022/03/08 04:28:51;;;;;;;13.25;10.10;;;;;;;-0.63;48.44;99373.00;2624445;54;20026;-65
2022/03/08 04:31:20;;;;;;;14.68;10.65;;;;;;;-0.65;48.73;99373.13;2624477;54;20058;-66
2022/03/08 04:33:50;;;;;;;13.35;10.07;;;;;;;-0.64;48.93;99376.56;2624311;54;20030;-67
2022/03/08 04:36:22;;;;;;;17.20;10.88;;;;;;;-0.57;48.64;99370.81;2624914;39;20437;-66
2022/03/08 04:38:57;;;;;;;15.40;10.57;;;;;;;-0.51;48.41;99372.16;2623812;47;20049;-68
2022/03/08 04:41:27;;;;;;;16.35;11.02;;;;;;;-0.54;48.35;99370.59;2624616;54;20045;-65
2022/03/08 04:43:57;;;;;;;14.75;10.85;;;;;;;-0.57;48.49;99373.44;2624912;54;20045;-65
2022/03/08 04:46:27;;;;;;;13.98;10.55;;;;;;;-0.63;48.75;99378.22;2624909;54;20038;-65
2022/03/08 04:48:57;;;;;;;15.77;10.95;;;;;;;-0.63;48.47;99373.00;2625099;54;20061;-66
2022/03/08 04:51:29;;;;;;;13.30;9.60;;;;;;;-0.68;48.58;99377.72;2625167;54;20038;-66
2022/03/08 04:53:59;;;;;;;16.33;10.48;;;;;;;-0.68;48.86;99383.72;2624794;54;20046;-65
2022/03/08 04:56:29;;;;;;;14.77;10.27;;;;;;;-0.70;48.92;99379.56;2625030;54;20034;-65
2022/03/08 04:59:01;;;;;;;15.45;10.05;;;;;;;-0.73;48.93;99391.00;2623119;54;20027;-66
2022/03/08 05:01:31;;;;;;;13.13;9.98;;;;;;;-0.79;48.67;99374.06;2622326;54;20038;-65
2022/03/08 05:04:01;;;;;;;13.65;9.38;;;;;;;-0.81;49.11;99385.53;2621994;54;20038;-65
2022/03/08 05:06:33;;;;;;;15.90;11.18;;;;;;;-0.78;48.79;99387.88;2622060;54;20037;-65
2022/03/08 05:09:03;;;;;;;15.88;10.52;;;;;;;-0.82;48.87;99386.44;2622001;54;20026;-66
2022/03/08 05:11:32;;;;;;;14.93;10.23;;;;;;;-0.83;48.89;99382.19;2621571;54;20033;-67
2022/03/08 05:14:06;;;;;;;12.52;9.85;;;;;;;-0.83;48.83;99383.00;2622965;54;20134;-65
2022/03/08 05:16:36;;;;;;;14.82;10.27;;;;;;;-0.83;48.80;99372.63;2623548;39;20491;-63
2022/03/08 05:19:06;;;;;;;13.70;10.10;;;;;;;-0.84;48.79;99380.53;2625897;54;20030;-66
2022/03/08 05:21:38;;;;;;;15.85;10.73;;;;;;;-0.85;48.84;99376.28;2626093;54;20045;-63
2022/03/08 05:24:08;;;;;;;15.60;10.65;;;;;;;-0.85;49.16;99376.28;2626107;54;20062;-64
2022/03/08 05:26:38;;;;;;;14.98;10.93;;;;;;;-0.81;49.06;99383.75;2629029;39;20481;-67
2022/03/08 05:29:09;;;;;;;16.13;9.90;;;;;;;-0.81;48.86;99381.16;2624634;54;20039;-63
2022/03/08 05:31:39;;;;;;;14.82;9.80;;;;;;;-0.77;48.64;99382.59;2622299;54;20057;-63
2022/03/08 05:34:09;;;;;;;14.32;9.98;;;;;;;-0.70;48.89;99380.41;2619242;54;20031;-63
2022/03/08 05:36:41;;;;;;;16.27;10.48;;;;;;;-0.72;48.62;99378.84;2619342;54;20042;-62
2022/03/08 05:39:10;;;;;;;13.80;10.25;;;;;;;-0.76;48.58;99378.25;2619404;50;20061;-63
2022/03/08 05:41:40;;;;;;;11.48;9.20;;;;;;;-0.80;48.75;99374.19;2619108;54;20046;-62
2022/03/08 05:44:10;;;;;;;13.45;10.23;;;;;;;-0.79;48.72;99373.25;2618118;54;20031;-64
2022/03/08 05:46:40;;;;;;;13.18;9.73;;;;;;;-0.83;48.61;99377.00;2619201;54;20034;-63
2022/03/08 05:49:09;;;;;;;13.23;9.68;;;;;;;-0.84;48.71;99378.78;2619124;54;20034;-64
2022/03/08 05:51:42;;;;;;;13.68;9.43;;;;;;;-0.84;48.89;99376.16;2618944;54;20038;-63
2022/03/08 05:54:12;;;;;;;12.68;9.63;;;;;;;-0.85;49.06;99378.88;2618797;54;20038;-63
2022/03/08 05:56:42;;;;;;;13.43;9.95;;;;;;;-0.81;48.95;99377.72;2619554;39;20434;-65
2022/03/08 05:59:12;;;;;;;16.42;10.52;;;;;;;-0.83;48.91;99377.00;2622923;54;20027;-64
2022/03/08 06:01:42;;;;;;;12.80;9.80;;;;;;;-0.86;48.75;99385.00;2622968;54;20038;-63
2022/03/08 06:04:12;;;;;;;21.98;13.30;;;;;;;-0.80;49.43;99379.38;2622373;39;20462;-63
2022/03/08 06:06:44;;;;;;;17.83;10.77;;;;;;;-0.74;49.27;99373.75;2620215;54;20038;-64
2022/03/08 06:09:14;;;;;;;16.35;10.98;;;;;;;-0.75;49.05;99366.91;2621129;54;20034;-64
2022/03/08 06:11:43;;;;;;;11.30;8.82;;;;;;;-0.77;49.04;99372.22;2620946;54;20038;-66
2022/03/08 06:14:13;;;;;;;13.45;8.90;;;;;;;-0.80;48.72;99367.22;2619646;54;20065;-64
2022/03/08 06:16:43;;;;;;;12.35;9.07;;;;;;;-0.80;49.02;99376.78;2619967;47;20031;-63
2022/03/08 06:19:12;;;;;;;13.20;8.85;;;;;;;-0.77;48.91;99369.63;2620718;54;20106;-64
2022/03/08 06:21:45;;;;;;;13.65;9.35;;;;;;;-0.73;48.65;99370.25;2620742;54;20061;-64
2022/03/08 06:24:14;;;;;;;14.65;8.98;;;;;;;-0.70;48.56;99370.00;2622625;54;20600;-64
2022/03/08 06:26:44;;;;;;;16.35;10.75;;;;;;;-0.68;48.87;99372.50;2624184;54;20041;-65
2022/03/08 06:29:14;;;;;;;15.75;9.15;;;;;;;-0.67;48.38;99371.56;2622287;39;20403;-63
2022/03/08 06:31:44;;;;;;;15.35;10.02;;;;;;;-0.69;48.54;99370.88;2623011;39;20422;-63
2022/03/08 06:34:14;;;;;;;19.17;10.60;;;;;;;-0.69;48.88;99371.69;2620527;54;20150;-65
2022/03/08 06:36:46;;;;;;;21.02;10.70;;;;;;;-0.67;48.89;99375.00;2619953;54;20034;-63
2022/03/08 06:39:16;;;;;;;15.55;10.07;;;;;;;-0.67;48.77;99367.22;2618901;54;20046;-63
2022/03/08 06:41:46;;;;;;;14.38;9.48;;;;;;;-0.66;48.87;99376.66;2619344;39;20337;-63
2022/03/08 06:44:16;;;;;;;15.20;10.18;;;;;;;-0.64;49.32;99374.78;2618606;54;20044;-63
2022/03/08 06:46:46;;;;;;;14.70;9.98;;;;;;;-0.60;49.22;99380.59;2618182;47;20026;-63
2022/03/08 06:49:17;;;;;;;15.57;9.73;;;;;;;-0.53;48.71;99384.44;2618919;54;20038;-64
2022/03/08 06:51:49;;;;;;;12.68;8.38;;;;;;;-0.41;48.80;99387.91;2618578;54;20550;-64
2022/03/08 06:54:20;;;;;;;18.25;9.05;;;;;;;-0.32;48.10;99385.50;2618201;47;20038;-63
2022/03/08 06:56:50;;;;;;;11.63;9.35;;;;;;;-0.23;48.23;99389.22;2618969;54;20027;-63
2022/03/08 06:59:19;;;;;;;10.88;8.68;;;;;;;-0.12;48.07;99396.25;2618731;54;20031;-64
2022/03/08 07:01:49;;;;;;;13.55;9.43;;;;;;;-0.02;48.12;99392.03;2618606;54;20081;-63
2022/03/08 07:04:19;;;;;;;12.98;9.13;;;;;;;0.10;47.86;99387.72;2618554;54;20039;-64
2022/03/08 07:06:57;;;;;;;12.18;9.80;;;;;;;0.21;47.82;99391.19;2618364;54;20027;-64
2022/03/08 07:09:27;;;;;;;11.40;8.40;;;;;;;0.31;47.27;99393.94;2618354;54;20038;-65
2022/03/08 07:11:57;;;;;;;11.02;8.57;;;;;;;0.37;47.08;99392.66;2618382;54;20026;-63
2022/03/08 07:14:26;;;;;;;9.90;7.88;;;;;;;0.44;46.77;99391.25;2618366;54;20037;-63
2022/03/08 07:16:56;;;;;;;10.73;8.48;;;;;;;0.56;46.34;99392.94;2617834;54;20216;-64
2022/03/08 07:19:26;;;;;;;12.88;8.65;;;;;;;0.69;46.21;99392.84;2618635;54;20106;-64
2022/03/08 07:21:58;;;;;;;12.85;8.00;;;;;;;0.81;45.76;99394.53;2618712;54;20030;-64
2022/03/08 07:24:28;;;;;;;10.13;8.18;;;;;;;0.93;45.83;99400.56;2618380;54;20038;-63
2022/03/08 07:26:57;;;;;;;9.48;7.53;;;;;;;1.08;45.18;99401.19;2618430;54;20042;-65
2022/03/08 07:29:27;;;;;;;11.25;8.13;;;;;;;1.19;45.08;99390.78;2618448;54;20034;-63
2022/03/08 07:31:57;;;;;;;11.00;7.82;;;;;;;1.30;44.59;99393.38;2618784;39;20466;-63
2022/03/08 07:34:26;;;;;;;12.23;8.43;;;;;;;1.41;44.11;99393.38;2618103;54;20034;-64
2022/03/08 07:36:59;;;;;;;14.63;10.40;;;;;;;1.53;43.94;99382.94;2617596;47;20034;-63
2022/03/08 07:39:28;;;;;;;9.25;7.97;;;;;;;1.65;43.26;99388.00;2618673;39;20435;-64
2022/03/08 07:41:58;;;;;;;10.85;8.63;;;;;;;1.70;43.53;99388.47;2618483;54;20042;-64
2022/03/08 07:44:27;;;;;;;11.23;8.02;;;;;;;1.77;43.27;99377.56;2618116;54;20026;-63
2022/03/08 07:46:59;;;;;;;10.35;7.40;;;;;;;1.90;42.81;99392.09;2617411;54;20045;-66
2022/03/08 07:49:28;;;;;;;9.82;7.72;;;;;;;1.93;43.20;99386.63;2618249;54;20064;-63
2022/03/08 07:52:01;;;;;;;11.13;8.13;;;;;;;2.03;43.15;99380.69;2617608;47;20027;-64
2022/03/08 07:54:30;;;;;;;8.45;7.00;;;;;;;2.14;42.95;99380.63;2617539;54;20062;-64
2022/03/08 07:57:00;;;;;;;11.75;7.57;;;;;;;2.28;42.75;99384.72;2617646;47;20023;-65
2022/03/08 07:59:29;;;;;;;9.80;7.55;;;;;;;2.34;42.90;99387.66;2617967;39;20433;-66
2022/03/08 08:01:59;;;;;;;9.30;6.97;;;;;;;2.46;42.58;99389.25;2617526;47;20038;-64
2022/03/08 08:04:29;;;;;;;10.07;8.18;;;;;;;2.50;42.54;99395.06;2617845;54;20138;-64
2022/03/08 08:07:01;;;;;;;8.52;7.10;;;;;;;2.63;42.22;99392.25;2618063;54;20038;-64
2022/03/08 08:09:31;;;;;;;10.07;7.53;;;;;;;2.67;42.04;99399.72;2618143;54;20065;-63
2022/03/08 08:12:01;;;;;;;10.57;7.68;;;;;;;2.73;42.37;99393.13;2618163;54;20046;-65
2022/03/08 08:14:31;;;;;;;8.48;7.20;;;;;;;2.81;41.80;99395.13;2618081;54;20035;-64
2022/03/08 08:17:00;;;;;;;8.93;7.57;;;;;;;2.83;42.22;99393.22;2617625;47;20065;-64
2022/03/08 08:19:30;;;;;;;9.48;7.07;;;;;;;2.91;42.26;99396.00;2618508;54;20022;-64
2022/03/08 08:22:02;;;;;;;10.85;7.95;;;;;;;3.03;41.99;99404.59;2618492;54;20045;-65
2022/03/08 08:24:32;;;;;;;11.82;7.40;;;;;;;3.09;41.69;99401.44;2618702;54;20045;-65
2022/03/08 08:27:02;;;;;;;11.45;7.25;;;;;;;3.17;41.29;99401.63;2620168;54;20030;-63
2022/03/08 08:29:31;;;;;;;9.93;7.35;;;;;;;3.21;41.49;99393.38;2622220;54;20050;-67
2022/03/08 08:32:01;;;;;;;12.35;7.75;;;;;;;3.31;41.21;99405.69;2622703;54;20037;-64
2022/03/08 08:34:31;;;;;;;10.57;8.27;;;;;;;3.36;40.88;99403.50;2622720;54;20602;-64
2022/03/08 08:37:03;;;;;;;11.15;8.98;;;;;;;3.38;41.05;99398.97;2621560;54;20031;-63
2022/03/08 08:39:33;;;;;;;16.00;11.27;;;;;;;3.46;41.45;99396.50;2621648;54;20027;-65
2022/03/08 08:42:02;;;;;;;12.38;9.00;;;;;;;3.52;41.13;99398.59;2623289;39;20441;-65
2022/03/08 08:44:38;;;;;;;10.85;8.73;;;;;;;3.60;41.46;99401.38;2621151;54;20065;-63
2022/03/08 08:47:08;;;;;;;11.45;8.13;;;;;;;3.75;40.60;99403.59;2622465;54;20022;-64
2022/03/08 08:49:38;;;;;;;13.73;8.43;;;;;;;3.78;41.07;99409.41;2621982;54;20529;-65
2022/03/08 08:52:11;;;;;;;10.50;8.25;;;;;;;3.86;40.61;99393.03;2623276;54;20035;-64
2022/03/08 08:54:41;;;;;;;11.23;8.20;;;;;;;3.90;40.92;99395.25;2623446;54;20574;-64
2022/03/08 08:57:11;;;;;;;10.38;8.27;;;;;;;3.97;40.56;99392.91;2623193;54;20038;-64
2022/03/08 08:59:40;;;;;;;10.30;7.90;;;;;;;4.08;40.62;99390.19;2623885;54;20042;-64
2022/03/08 09:02:10;;;;;;;11.13;8.55;;;;;;;4.18;39.73;99388.38;2625243;39;20426;-65
2022/03/08 09:04:40;;;;;;;10.43;8.00;;;;;;;4.23;40.12;99375.72;2622933;54;20026;-64
2022/03/08 09:07:13;;;;;;;7.88;7.03;;;;;;;4.30;39.67;99385.63;2620645;47;20033;-63
2022/03/08 09:09:42;;;;;;;9.48;7.60;;;;;;;4.32;39.82;99381.91;2619763;54;20034;-62
2022/03/08 09:12:12;;;;;;;8.57;7.13;;;;;;;4.37;39.51;99366.63;2619606;54;20027;-63
2022/03/08 09:14:42;;;;;;;9.23;6.97;;;;;;;4.48;38.88;99371.69;2620959;54;20041;-63
2022/03/08 09:17:12;;;;;;;13.07;9.63;;;;;;;4.47;39.31;99362.19;2620862;54;20034;-63
2022/03/08 09:19:41;;;;;;;15.75;12.52;;;;;;;4.53;39.71;99365.22;2622237;54;20034;-63
2022/03/08 09:22:14;;;;;;;11.80;8.70;;;;;;;4.65;39.36;99366.72;2621853;54;20039;-63
2022/03/08 09:24:44;;;;;;;9.85;6.45;;;;;;;4.81;38.48;99363.50;2622205;54;20530;-63
2022/03/08 09:27:14;;;;;;;8.15;7.10;;;;;;;4.83;38.22;99364.19;2621555;54;20154;-63
2022/03/08 09:29:48;;;;;;;7.70;6.85;;;;;;;4.87;37.75;99368.19;2619473;54;20657;-64
2022/03/08 09:32:18;;;;;;;9.07;6.43;;;;;;;4.97;36.76;99364.56;2619156;54;20042;-64
2022/03/08 09:34:47;;;;;;;8.90;5.93;;;;;;;4.99;36.49;99355.75;2618897;54;20022;-64
2022/03/08 09:37:19;;;;;;;7.05;6.13;;;;;;;5.02;36.51;99360.69;2618786;54;20034;-63
2022/03/08 09:39:49;;;;;;;7.53;6.43;;;;;;;5.02;36.97;99358.06;2618595;47;20034;-65
2022/03/08 09:42:19;;;;;;;8.05;5.82;;;;;;;5.14;36.56;99352.53;2618985;54;20026;-65
2022/03/08 09:44:49;;;;;;;9.05;6.43;;;;;;;5.17;36.15;99354.00;2618903;54;20560;-65
2022/03/08 09:47:19;;;;;;;8.23;6.43;;;;;;;5.18;36.30;99353.03;2619384;39;20437;-66
2022/03/08 09:49:49;;;;;;;7.35;6.40;;;;;;;5.18;36.29;99364.38;2618686;54;20027;-66
2022/03/08 09:52:21;;;;;;;7.78;6.25;;;;;;;5.27;36.12;99356.59;2619500;39;20426;-65
2022/03/08 09:54:51;;;;;;;8.80;7.07;;;;;;;5.37;36.10;99342.47;2618279;54;20042;-65
2022/03/08 09:57:31;;;;;;;9.77;5.68;;;;;;;5.50;35.88;99351.78;2619036;54;20034;-63
2022/03/08 10:00:00;;;;;;;8.02;6.15;;;;;;;5.59;35.75;99343.88;2619048;54;20038;-65
2022/03/08 10:02:45;;;;;;;8.35;7.03;;;;;;;5.64;34.99;99341.63;2619198;46;20038;-64
2022/03/08 10:05:15;;;;;;;8.05;6.18;;;;;;;5.59;35.07;99343.03;2618386;54;20038;-65
2022/03/08 10:08:19;;;;;;;11.65;7.15;;;;;;;5.60;34.98;99348.13;2618560;54;20157;-65
2022/03/08 10:10:53;;;;;;;7.50;6.72;;;;;;;5.62;34.40;99335.69;2618774;54;20027;-64
2022/03/08 10:13:25;;;;;;;;;;;;;;;5.62;34.59;99343.56;2619174;54;20050;-62
2022/03/08 10:16:10;;;;;;;8.20;6.20;;;;;;;5.63;34.63;99347.84;2618349;54;19954;-64
2022/03/08 10:18:42;;;;;;;10.77;6.95;;;;;;;5.64;34.29;99341.63;2619224;54;20118;-63
2022/03/08 10:21:33;;;;;;;8.50;6.60;;;;;;;5.69;34.25;99344.63;2618814;54;20038;-64
2022/03/08 10:24:05;;;;;;;;;;;;;;;5.70;34.35;99334.94;2618124;54;20030;-63
2022/03/08 10:26:46;;;;;;;10.25;7.88;;;;;;;5.73;34.96;99337.28;2618000;54;19939;-63
2022/03/08 10:29:16;;;;;;;9.65;6.88;;;;;;;5.88;34.83;99332.34;2618667;54;20553;-64
2022/03/08 10:31:49;;;;;;;9.25;7.43;;;;;;;5.92;34.17;99345.06;2617971;54;20038;-63
2022/03/08 10:34:20;;;;;;;11.10;7.72;;;;;;;5.97;34.38;99338.53;2618306;54;20091;-63
2022/03/08 10:37:07;;;;;;;8.07;7.20;;;;;;;6.04;34.31;99339.56;2618567;54;20041;-66
2022/03/08 10:39:50;;;;;;;10.13;8.57;;;;;;;6.10;34.84;99337.16;2618279;54;20039;-64
2022/03/08 10:42:24;;;;;;;9.40;8.10;;;;;;;6.27;34.27;99340.75;2617720;54;20031;-65
2022/03/08 10:45:02;;;;;;;12.20;7.15;;;;;;;6.30;33.58;99329.97;2618381;54;20031;-64
2022/03/08 10:47:40;;;;;;;9.23;6.90;;;;;;;6.29;33.71;99335.38;2618686;39;20596;-62
2022/03/08 10:50:11;;;;;;;7.95;7.00;;;;;;;6.24;33.48;99327.91;2617794;47;20046;-65
2022/03/08 10:52:43;;;;;;;9.75;7.03;;;;;;;6.25;33.48;99331.41;2619358;39;20156;-64
2022/03/08 10:55:18;;;;;;;13.57;8.90;;;;;;;6.32;33.11;99316.66;2617971;54;20045;-63
2022/03/08 10:57:53;;;;;;;9.77;7.32;;;;;;;6.44;32.64;99328.56;2618110;54;20030;-64
2022/03/08 11:00:24;;;;;;;8.63;5.57;;;;;;;6.41;32.98;99321.03;2617921;54;20038;-64
2022/03/08 11:02:56;;;;;;;7.72;6.90;;;;;;;6.45;32.86;99323.19;2618523;54;20026;-63
2022/03/08 11:05:28;;;;;;;7.97;6.88;;;;;;;6.50;32.58;99327.97;2618209;54;20033;-63
2022/03/08 11:07:58;;;;;;;9.40;7.00;;;;;;;6.50;32.86;99327.16;2618736;54;20057;-63
2022/03/08 11:10:33;;;;;;;8.85;7.10;;;;;;;6.50;32.58;99324.53;2620326;54;20030;-64
2022/03/08 11:13:05;;;;;;;8.18;6.93;;;;;;;6.52;32.28;99323.38;2622217;54;20041;-64
2022/03/08 11:15:37;;;;;;;9.98;7.13;;;;;;;6.53;32.41;99305.81;2621729;54;20029;-64
2022/03/08 11:18:08;;;;;;;7.93;6.60;;;;;;;6.63;32.39;99317.06;2621059;54;20053;-64
2022/03/08 11:20:39;;;;;;;8.77;6.97;;;;;;;6.64;32.35;99316.88;2621386;54;20031;-65
2022/03/08 11:23:10;;;;;;;7.80;6.90;;;;;;;6.76;31.91;99316.63;2622516;54;20530;-66
2022/03/08 11:25:44;;;;;;;7.22;5.93;;;;;;;6.76;31.72;99306.94;2621879;54;20170;-63
2022/03/08 11:28:19;;;;;;;8.32;6.65;;;;;;;6.84;31.22;99307.00;2622028;54;20027;-65
2022/03/08 11:30:52;;;;;;;9.13;5.90;;;;;;;6.86;31.10;99305.03;2620709;54;20030;-64
2022/03/08 11:33:34;;;;;;;8.63;6.75;;;;;;;6.97;30.97;99300.47;2618064;54;20046;-64
2022/03/08 11:36:10;;;;;;;10.52;6.78;;;;;;;6.98;31.04;99300.34;2618572;54;20053;-62
2022/03/08 11:38:40;;;;;;;8.77;6.90;;;;;;;7.10;30.78;99299.09;2619129;39;20392;-64
2022/03/08 11:41:26;;;;;;;8.25;6.47;;;;;;;7.10;30.67;99299.09;2618644;54;20038;-64
2022/03/08 11:43:58;;;;;;;7.35;6.28;;;;;;;7.14;30.41;99305.66;2617740;54;20555;-64